createdAt,value
2019-01-27T00:02:01.871Z,54.40
2019-01-27T00:04:29.308Z,55.10
2019-01-27T00:06:56.842Z,55.00
2019-01-27T00:09:24.315Z,54.70
2019-01-27T00:11:51.694Z,55.30
2019-01-27T00:14:19.116Z,54.90
2019-01-27T00:16:46.597Z,54.90
2019-01-27T00:19:13.995Z,54.90
2019-01-27T00:21:41.371Z,56.70
2019-01-27T00:24:08.724Z,55.60
2019-01-27T00:26:36.274Z,54.90
2019-01-27T00:29:04.362Z,55.60
2019-01-27T00:31:31.758Z,54.80
2019-01-27T00:33:59.254Z,55.40
2019-01-27T00:36:26.698Z,56.00
2019-01-27T00:38:54.180Z,55.40
2019-01-27T00:41:21.658Z,56.50
2019-01-27T00:43:49.156Z,55.50
2019-01-27T00:46:16.584Z,54.80
2019-01-27T00:48:44.052Z,54.80
2019-01-27T00:51:11.481Z,55.50
2019-01-27T00:53:38.975Z,54.90
2019-01-27T00:56:06.668Z,54.80
2019-01-27T00:58:34.433Z,54.80
2019-01-27T01:01:01.983Z,54.80
2019-01-27T01:03:29.512Z,55.50
2019-01-27T01:05:57.125Z,55.50
2019-01-27T01:08:24.692Z,54.90
2019-01-27T01:10:52.218Z,54.80
2019-01-27T01:13:19.631Z,54.90
2019-01-27T01:15:46.948Z,56.50
2019-01-27T01:18:14.368Z,55.50
2019-01-27T01:20:41.896Z,54.80
2019-01-27T01:23:09.351Z,54.80
2019-01-27T01:25:36.820Z,55.30
2019-01-27T01:28:04.205Z,55.30
2019-01-27T01:30:31.770Z,54.70
2019-01-27T01:32:59.050Z,55.20
2019-01-27T01:35:26.630Z,54.70
2019-01-27T01:37:54.229Z,54.70
2019-01-27T01:40:21.781Z,55.20
2019-01-27T01:42:49.083Z,55.20
2019-01-27T01:45:19.084Z,56.80
2019-01-27T01:47:46.550Z,55.10
2019-01-27T01:50:14.086Z,55.00
2019-01-27T01:52:41.551Z,54.60
2019-01-27T01:55:09.695Z,54.60
2019-01-27T01:57:37.081Z,54.60
2019-01-27T02:00:06.455Z,54.50
2019-01-27T02:02:33.873Z,56.20
2019-01-27T02:05:01.296Z,54.80
2019-01-27T02:07:28.779Z,54.70
2019-01-27T02:09:56.224Z,54.80
2019-01-27T02:14:50.995Z,54.40
2019-01-27T02:17:18.384Z,54.80
2019-01-27T02:22:13.206Z,54.10
2019-01-27T02:24:40.549Z,54.80
2019-01-27T02:27:08.002Z,54.40
2019-01-27T02:29:35.400Z,55.00
2019-01-27T02:32:02.926Z,54.40
2019-01-27T02:34:30.295Z,54.40
2019-01-27T02:36:57.685Z,54.90
2019-01-27T02:39:25.112Z,54.80
2019-01-27T02:41:52.520Z,54.90
2019-01-27T02:44:19.986Z,54.40
2019-01-27T02:46:47.461Z,54.40
2019-01-27T02:49:14.882Z,54.90
2019-01-27T02:51:42.358Z,54.40
2019-01-27T02:54:09.609Z,54.40
2019-01-27T02:56:37.026Z,54.40
2019-01-27T02:59:04.424Z,54.40
2019-01-27T03:01:31.947Z,54.30
2019-01-27T03:03:59.492Z,54.90
2019-01-27T03:06:45.144Z,54.80
2019-01-27T03:09:19.269Z,54.30
2019-01-27T03:11:49.148Z,54.20
2019-01-27T03:14:18.436Z,54.30
2019-01-27T03:16:46.194Z,54.30
2019-01-27T03:19:13.470Z,54.70
2019-01-27T03:21:40.804Z,54.30
2019-01-27T03:24:08.095Z,55.90
2019-01-27T03:26:35.513Z,54.40
2019-01-27T03:29:02.867Z,54.40
2019-01-27T03:33:57.829Z,54.40
2019-01-27T03:36:25.258Z,54.40
2019-01-27T03:38:52.829Z,54.30
2019-01-27T03:41:20.305Z,54.40
2019-01-27T03:43:47.829Z,54.40
2019-01-27T03:46:15.308Z,54.50
2019-01-27T03:48:42.977Z,54.40
2019-01-27T03:51:10.413Z,54.40
2019-01-27T03:53:37.743Z,54.50
2019-01-27T03:56:05.443Z,55.00
2019-01-27T03:58:32.965Z,54.50
2019-01-27T04:01:00.332Z,55.00
2019-01-27T04:03:27.809Z,55.00
2019-01-27T04:05:55.316Z,55.90
2019-01-27T04:08:22.610Z,54.60
2019-01-27T04:10:49.999Z,56.60
2019-01-27T04:13:17.379Z,55.00
2019-01-27T04:15:44.892Z,55.60
2019-01-27T04:18:12.433Z,55.10
2019-01-27T04:20:39.978Z,54.50
2019-01-27T04:23:07.406Z,54.40
2019-01-27T04:25:34.729Z,54.50
2019-01-27T04:28:02.009Z,54.40
2019-01-27T04:30:34.343Z,54.50
2019-01-27T04:33:01.837Z,54.50
2019-01-27T04:35:29.245Z,55.00
2019-01-27T04:37:56.661Z,54.40
2019-01-27T04:40:24.233Z,56.50
2019-01-27T04:42:51.736Z,55.10
2019-01-27T04:45:24.776Z,55.10
2019-01-27T04:50:19.627Z,54.70
2019-01-27T04:52:47.071Z,54.80
2019-01-27T04:55:14.816Z,54.90
2019-01-27T04:57:42.179Z,55.00
2019-01-27T05:00:13.175Z,55.00
2019-01-27T05:02:45.380Z,55.10
2019-01-27T05:05:12.673Z,55.20
2019-01-27T05:12:34.684Z,55.30
2019-01-27T05:15:02.044Z,55.40
2019-01-27T05:22:23.828Z,55.30
2019-01-27T05:24:51.083Z,55.40
2019-01-27T05:27:18.389Z,55.30
2019-01-27T05:29:45.771Z,55.30
2019-01-27T05:32:13.113Z,55.20
2019-01-27T05:34:40.378Z,55.20
2019-01-27T05:37:07.721Z,55.10
2019-01-27T05:39:35.099Z,55.10
2019-01-27T05:42:02.418Z,55.10
2019-01-27T05:46:57.146Z,55.10
2019-01-27T05:49:24.567Z,55.10
2019-01-27T05:51:51.793Z,55.10
2019-01-27T05:54:20.244Z,55.10
2019-01-27T05:56:47.630Z,55.10
2019-01-27T05:59:15.118Z,55.10
2019-01-27T06:01:42.538Z,55.10
2019-01-27T06:04:09.893Z,55.10
2019-01-27T06:06:37.472Z,55.10
2019-01-27T06:09:07.370Z,55.00
2019-01-27T06:11:34.677Z,54.90
2019-01-27T06:14:02.051Z,54.90
2019-01-27T06:16:29.320Z,54.80
2019-01-27T06:18:56.645Z,54.80
2019-01-27T06:21:24.022Z,54.80
2019-01-27T06:28:45.911Z,54.60
2019-01-27T06:31:13.296Z,54.50
2019-01-27T06:34:09.080Z,54.50
2019-01-27T06:41:32.978Z,54.20
2019-01-27T06:44:00.269Z,54.20
2019-01-27T06:46:27.598Z,54.20
2019-01-27T06:48:54.813Z,54.10
2019-01-27T06:51:22.187Z,54.10
2019-01-27T06:53:49.486Z,54.10
2019-01-27T06:56:16.874Z,54.10
2019-01-27T06:59:02.440Z,54.30
2019-01-27T07:01:35.786Z,54.30
2019-01-27T07:04:25.530Z,54.20
2019-01-27T07:07:05.979Z,54.20
2019-01-27T07:09:52.890Z,53.50
2019-01-27T07:12:25.610Z,54.00
2019-01-27T07:15:08.796Z,54.00
2019-01-27T07:17:48.161Z,53.90
2019-01-27T07:23:44.300Z,53.80
2019-01-27T07:26:21.295Z,53.60
2019-01-27T07:29:20.258Z,53.60
2019-01-27T07:32:01.600Z,53.60
2019-01-27T07:37:35.856Z,53.60
2019-01-27T07:40:27.039Z,53.60
2019-01-27T07:43:07.050Z,53.50
2019-01-27T07:45:41.686Z,53.60
2019-01-27T07:48:28.539Z,53.60
2019-01-27T07:51:21.377Z,53.70
2019-01-27T07:54:26.230Z,53.70
2019-01-27T07:57:15.763Z,53.70
2019-01-27T07:59:51.333Z,53.70
2019-01-27T08:02:44.166Z,53.80
2019-01-27T08:05:36.341Z,53.80
2019-01-27T08:11:28.109Z,53.80
2019-01-27T08:14:13.152Z,53.70
2019-01-27T08:16:57.501Z,53.60
2019-01-27T08:19:43.163Z,53.60
2019-01-27T08:22:36.401Z,53.70
2019-01-27T08:25:33.791Z,53.80
2019-01-27T08:28:23.746Z,53.80
2019-01-27T08:33:37.070Z,53.90
2019-01-27T08:36:27.209Z,53.90
2019-01-27T08:39:19.647Z,54.00
2019-01-27T08:42:09.575Z,53.80
2019-01-27T08:44:58.293Z,53.80
2019-01-27T08:49:53.189Z,53.60
2019-01-27T08:52:20.525Z,53.60
2019-01-27T08:54:47.898Z,53.50
2019-01-27T08:57:15.369Z,53.50
2019-01-27T08:59:42.840Z,53.30
2019-01-27T09:02:28.311Z,53.20
2019-01-27T09:05:26.933Z,53.10
2019-01-27T09:10:49.149Z,53.00
2019-01-27T09:13:38.539Z,52.90
2019-01-27T09:16:37.428Z,52.90
2019-01-27T09:19:24.536Z,52.90
2019-01-27T09:22:14.242Z,52.90
2019-01-27T09:24:53.510Z,53.00
2019-01-27T09:27:40.476Z,53.00
2019-01-27T09:30:23.976Z,53.10
2019-01-27T09:33:34.243Z,53.20
2019-01-27T09:36:20.209Z,53.20
2019-01-27T09:41:54.200Z,53.10
2019-01-27T09:44:46.782Z,53.20
2019-01-27T09:47:35.810Z,53.50
2019-01-27T09:53:17.719Z,52.70
2019-01-27T09:56:09.649Z,53.20
2019-01-27T09:59:02.002Z,52.60
2019-01-27T10:01:36.690Z,52.60
2019-01-27T10:04:23.029Z,52.30
2019-01-27T10:06:58.684Z,52.30
2019-01-27T10:10:00.978Z,52.70
2019-01-27T10:12:43.778Z,52.20
2019-01-27T10:15:29.980Z,52.30
2019-01-27T10:18:22.965Z,52.20
2019-01-27T10:21:10.461Z,52.10
2019-01-27T10:23:53.679Z,52.20
2019-01-27T10:26:38.456Z,52.10
2019-01-27T10:29:46.292Z,51.70
2019-01-27T10:32:43.595Z,52.00
2019-01-27T10:35:30.599Z,52.50
2019-01-27T10:38:03.520Z,52.30
2019-01-27T10:40:50.442Z,52.30
2019-01-27T10:43:26.695Z,52.00
2019-01-27T10:46:19.941Z,52.30
2019-01-27T10:49:00.633Z,51.80
2019-01-27T10:51:46.252Z,51.60
2019-01-27T10:54:24.757Z,51.40
2019-01-27T10:57:06.200Z,51.50
2019-01-27T10:59:58.591Z,50.90
2019-01-27T11:02:44.316Z,51.20
2019-01-27T11:05:50.233Z,50.70
2019-01-27T11:08:39.963Z,51.00
2019-01-27T11:11:21.134Z,50.80
2019-01-27T11:14:08.118Z,50.60
2019-01-27T11:17:01.208Z,50.30
2019-01-27T11:19:43.599Z,50.30
2019-01-27T11:22:28.911Z,50.30
2019-01-27T11:25:11.520Z,50.80
2019-01-27T11:27:53.768Z,50.00
2019-01-27T11:30:40.952Z,49.60
2019-01-27T11:33:22.298Z,48.40
2019-01-27T11:36:07.778Z,49.70
2019-01-27T11:38:48.659Z,49.20
2019-01-27T11:41:34.452Z,48.70
2019-01-27T11:44:26.906Z,48.80
2019-01-27T11:47:19.934Z,48.90
2019-01-27T11:50:06.807Z,48.60
2019-01-27T11:52:37.352Z,48.60
2019-01-27T11:55:06.782Z,48.60
2019-01-27T11:57:34.171Z,48.60
2019-01-27T12:00:01.549Z,47.10
2019-01-27T12:02:29.158Z,48.50
2019-01-27T12:04:56.563Z,48.40
2019-01-27T12:07:24.013Z,48.30
2019-01-27T12:09:51.374Z,48.20
2019-01-27T12:12:18.739Z,48.40
2019-01-27T12:14:46.167Z,48.20
2019-01-27T12:17:13.612Z,48.90
2019-01-27T12:19:40.987Z,48.20
2019-01-27T12:22:08.303Z,48.30
2019-01-27T12:24:35.717Z,48.40
2019-01-27T12:27:03.230Z,48.40
2019-01-27T12:29:30.639Z,48.50
2019-01-27T12:31:58.068Z,48.40
2019-01-27T12:34:25.499Z,48.70
2019-01-27T12:36:52.968Z,48.20
2019-01-27T12:39:20.324Z,48.20
2019-01-27T12:41:47.758Z,48.50
2019-01-27T12:44:15.205Z,48.40
2019-01-27T12:46:42.784Z,48.40
2019-01-27T12:49:10.221Z,48.40
2019-01-27T12:51:37.710Z,49.20
2019-01-27T12:54:05.153Z,48.30
2019-01-27T12:56:32.647Z,48.40
2019-01-27T12:59:00.089Z,49.40
2019-01-27T13:01:27.558Z,48.20
2019-01-27T13:03:55.109Z,48.10
2019-01-27T13:06:22.587Z,48.10
2019-01-27T13:08:49.933Z,48.10
2019-01-27T13:11:17.777Z,49.50
2019-01-27T13:13:45.475Z,48.20
2019-01-27T13:16:12.773Z,48.10
2019-01-27T13:18:40.083Z,48.20
2019-01-27T13:21:07.628Z,48.20
2019-01-27T13:23:37.985Z,48.30
2019-01-27T13:26:09.812Z,48.30
2019-01-27T13:28:35.002Z,48.20
2019-01-27T13:31:02.692Z,48.20
2019-01-27T13:33:30.397Z,48.10
2019-01-27T13:35:58.003Z,48.20
2019-01-27T13:38:25.443Z,48.00
2019-01-27T13:40:55.961Z,47.80
2019-01-27T13:43:23.640Z,47.90
2019-01-27T13:45:51.025Z,47.80
2019-01-27T13:48:18.593Z,47.70
2019-01-27T13:50:46.027Z,47.60
2019-01-27T13:53:13.433Z,47.60
2019-01-27T13:55:40.808Z,47.60
2019-01-27T13:58:08.319Z,48.60
2019-01-27T14:00:39.019Z,47.80
2019-01-27T14:03:06.362Z,49.40
2019-01-27T14:05:33.968Z,47.80
2019-01-27T14:08:01.499Z,47.90
2019-01-27T14:10:28.876Z,48.60
2019-01-27T14:12:56.816Z,48.00
2019-01-27T14:15:26.497Z,48.10
2019-01-27T14:17:54.039Z,48.20
2019-01-27T14:20:21.739Z,49.80
2019-01-27T14:22:49.439Z,48.50
2019-01-27T14:25:18.799Z,47.80
2019-01-27T14:27:46.287Z,47.90
2019-01-27T14:30:19.357Z,47.80
2019-01-27T14:32:48.111Z,47.90
2019-01-27T14:35:18.345Z,48.00
2019-01-27T14:37:46.001Z,48.10
2019-01-27T14:40:20.311Z,47.90
2019-01-27T14:42:48.023Z,48.30
2019-01-27T14:45:18.459Z,48.20
2019-01-27T14:47:45.907Z,48.40
2019-01-27T14:50:16.136Z,48.70
2019-01-27T14:52:43.449Z,48.50
2019-01-27T14:55:11.849Z,50.00
2019-01-27T14:57:39.177Z,49.40
2019-01-27T15:00:10.456Z,48.80
2019-01-27T15:02:37.881Z,49.60
2019-01-27T15:05:07.816Z,49.00
2019-01-27T15:07:35.157Z,49.10
2019-01-27T15:10:02.646Z,49.90
2019-01-27T15:12:30.009Z,49.00
2019-01-27T15:14:57.460Z,49.00
2019-01-27T15:17:24.925Z,49.20
2019-01-27T15:19:52.267Z,49.10
2019-01-27T15:22:19.745Z,49.40
2019-01-27T15:24:47.355Z,49.10
2019-01-27T15:27:14.836Z,49.20
2019-01-27T15:29:42.223Z,49.40
2019-01-27T15:32:09.751Z,49.40
2019-01-27T15:34:37.155Z,49.40
2019-01-27T15:37:04.571Z,49.40
2019-01-27T15:39:32.022Z,50.00
2019-01-27T15:41:59.418Z,49.40
2019-01-27T15:44:26.778Z,50.00
2019-01-27T15:50:29.186Z,49.40
2019-01-27T15:52:56.509Z,49.40
2019-01-27T15:55:26.506Z,49.40
2019-01-27T15:57:53.902Z,49.40
2019-01-27T16:00:23.549Z,49.40
2019-01-27T16:02:51.156Z,47.90
2019-01-27T16:05:19.715Z,50.10
2019-01-27T16:07:47.338Z,49.20
2019-01-27T16:10:16.370Z,50.00
2019-01-27T16:12:44.208Z,49.40
2019-01-27T16:15:14.082Z,49.10
2019-01-27T16:17:41.470Z,50.20
2019-01-27T16:20:12.749Z,48.90
2019-01-27T16:22:41.583Z,48.80
2019-01-27T16:25:09.483Z,48.70
2019-01-27T16:27:36.904Z,48.70
2019-01-27T16:30:29.272Z,48.50
2019-01-27T16:33:00.510Z,48.50
2019-01-27T16:35:27.983Z,49.20
2019-01-27T16:37:55.598Z,48.30
2019-01-27T16:40:23.020Z,48.30
2019-01-27T16:42:50.456Z,48.30
2019-01-27T16:45:17.915Z,48.20
2019-01-27T16:47:45.377Z,48.30
2019-01-27T16:50:14.024Z,49.00
2019-01-27T16:52:41.529Z,48.40
2019-01-27T16:55:11.331Z,48.40
2019-01-27T16:57:38.835Z,48.50
2019-01-27T17:00:12.853Z,48.70
2019-01-27T17:02:40.242Z,48.60
2019-01-27T17:05:08.811Z,48.60
2019-01-27T17:07:36.186Z,48.70
2019-01-27T17:10:05.659Z,48.80
2019-01-27T17:12:33.256Z,48.80
2019-01-27T17:15:02.779Z,48.80
2019-01-27T17:17:30.126Z,48.80
2019-01-27T17:20:02.479Z,49.70
2019-01-27T17:22:26.927Z,49.50
2019-01-27T17:24:54.419Z,48.80
2019-01-27T17:27:22.159Z,48.70
2019-01-27T17:29:49.724Z,48.70
2019-01-27T17:32:17.364Z,48.70
2019-01-27T17:34:44.772Z,51.00
2019-01-27T17:37:12.229Z,50.20
2019-01-27T17:39:39.637Z,49.50
2019-01-27T17:42:07.201Z,48.60
2019-01-27T17:44:34.626Z,48.40
2019-01-27T17:47:02.162Z,49.80
2019-01-27T17:49:29.737Z,49.90
2019-01-27T17:51:57.345Z,49.70
2019-01-27T17:54:24.831Z,48.60
2019-01-27T17:57:00.720Z,48.50
2019-01-27T17:59:43.869Z,48.50
2019-01-27T18:02:33.207Z,48.70
2019-01-27T18:05:14.782Z,48.50
2019-01-27T18:08:07.199Z,48.80
2019-01-27T18:10:44.828Z,48.80
2019-01-27T18:13:37.251Z,48.90
2019-01-27T18:16:06.128Z,49.00
2019-01-27T18:18:33.693Z,50.00
2019-01-27T18:21:01.145Z,49.10
2019-01-27T18:23:28.624Z,50.70
2019-01-27T18:25:56.078Z,49.10
2019-01-27T18:28:23.611Z,50.10
2019-01-27T18:31:10.566Z,49.30
2019-01-27T18:33:37.996Z,49.60
2019-01-27T18:36:05.569Z,49.60
2019-01-27T18:38:53.741Z,49.60
2019-01-27T18:41:21.153Z,49.90
2019-01-27T18:43:48.558Z,51.20
2019-01-27T18:46:17.417Z,50.50
2019-01-27T18:48:44.860Z,49.90
2019-01-27T18:51:12.307Z,50.20
2019-01-27T18:54:25.006Z,50.90
2019-01-27T18:58:05.161Z,50.30
2019-01-27T19:00:01.169Z,50.10
2019-01-27T19:02:37.629Z,50.50
2019-01-27T19:05:18.442Z,50.00
2019-01-27T19:07:58.654Z,51.50
2019-01-27T19:10:36.413Z,50.10
2019-01-27T19:13:22.573Z,50.20
2019-01-27T19:16:08.196Z,50.20
2019-01-27T19:18:53.834Z,50.20
2019-01-27T19:21:38.234Z,50.30
2019-01-27T19:24:24.219Z,50.40
2019-01-27T19:27:09.346Z,50.50
2019-01-27T19:29:59.816Z,50.50
2019-01-27T19:32:46.779Z,50.50
2019-01-27T19:35:32.137Z,50.60
2019-01-27T19:38:22.068Z,50.70
2019-01-27T19:41:07.866Z,50.60
2019-01-27T19:43:48.056Z,50.60
2019-01-27T19:46:50.056Z,50.60
2019-01-27T19:49:29.284Z,50.60
2019-01-27T19:52:22.250Z,50.60
2019-01-27T19:55:23.897Z,50.70
2019-01-27T19:58:19.766Z,50.80
2019-01-27T20:01:05.429Z,51.00
2019-01-27T20:03:58.191Z,50.90
2019-01-27T20:06:41.074Z,51.00
2019-01-27T20:09:26.905Z,51.20
2019-01-27T20:12:13.992Z,51.10
2019-01-27T20:15:04.889Z,51.30
2019-01-27T20:17:51.425Z,51.10
2019-01-27T20:20:36.768Z,51.30
2019-01-27T20:23:21.846Z,51.40
2019-01-27T20:25:57.403Z,51.20
2019-01-27T20:28:44.373Z,51.20
2019-01-27T20:31:35.021Z,51.40
2019-01-27T20:34:20.781Z,51.20
2019-01-27T20:37:09.168Z,51.50
2019-01-27T20:39:55.980Z,51.50
2019-01-27T20:42:29.786Z,51.20
2019-01-27T20:45:05.534Z,51.70
2019-01-27T20:47:55.323Z,52.50
2019-01-27T20:50:38.516Z,52.00
2019-01-27T20:53:28.195Z,52.30
2019-01-27T20:56:17.914Z,52.30
2019-01-27T20:59:03.697Z,52.50
2019-01-27T21:01:50.746Z,53.10
2019-01-27T21:04:34.814Z,52.60
2019-01-27T21:07:26.248Z,52.60
2019-01-27T21:09:59.981Z,52.80
2019-01-27T21:12:43.706Z,52.80
2019-01-27T21:15:29.195Z,52.80
2019-01-27T21:18:04.925Z,53.00
2019-01-27T21:20:32.490Z,53.80
2019-01-27T21:22:59.972Z,53.10
2019-01-27T21:25:27.399Z,53.10
2019-01-27T21:27:55.200Z,53.20
2019-01-27T21:30:23.059Z,53.20
2019-01-27T21:32:55.621Z,53.20
2019-01-27T21:35:20.114Z,53.10
2019-01-27T21:37:47.676Z,53.30
2019-01-27T21:40:17.382Z,54.40
2019-01-27T21:42:47.645Z,54.10
2019-01-27T21:45:14.263Z,53.30
2019-01-27T21:47:41.609Z,53.90
2019-01-27T21:50:14.705Z,53.40
2019-01-27T21:52:42.156Z,53.50
2019-01-27T21:55:10.232Z,53.80
2019-01-27T21:57:57.107Z,53.50
2019-01-27T22:00:26.554Z,54.00
2019-01-27T22:02:53.987Z,53.50
2019-01-27T22:05:21.740Z,54.80
2019-01-27T22:07:49.404Z,53.90
2019-01-27T22:10:16.965Z,54.60
2019-01-27T22:12:44.602Z,53.70
2019-01-27T22:15:12.691Z,54.10
2019-01-27T22:18:02.486Z,53.50
2019-01-27T22:20:29.973Z,54.50
2019-01-27T22:22:57.430Z,53.70
2019-01-27T22:25:24.776Z,53.70
2019-01-27T22:27:55.486Z,54.30
2019-01-27T22:30:22.897Z,53.90
2019-01-27T22:32:50.635Z,54.40
2019-01-27T22:35:18.213Z,53.50
2019-01-27T22:37:45.734Z,53.60
2019-01-27T22:40:16.662Z,53.00
2019-01-27T22:42:44.476Z,55.20
2019-01-27T22:45:15.402Z,53.40
2019-01-27T22:47:43.118Z,54.10
2019-01-27T22:50:16.186Z,53.50
2019-01-27T22:52:44.335Z,53.70
2019-01-27T22:55:13.308Z,53.50
2019-01-27T22:57:42.128Z,53.60
2019-01-27T23:00:28.367Z,53.80
2019-01-27T23:02:58.005Z,53.10
2019-01-27T23:05:25.343Z,55.20
2019-01-27T23:07:52.841Z,55.10
2019-01-27T23:10:20.360Z,54.50
2019-01-27T23:12:47.974Z,53.30
2019-01-27T23:15:15.383Z,53.40
2019-01-27T23:17:42.751Z,53.30
2019-01-27T23:20:10.217Z,54.80
2019-01-27T23:22:37.763Z,54.60
2019-01-27T23:25:05.121Z,55.10
2019-01-27T23:27:32.705Z,53.40
2019-01-27T23:30:00.313Z,53.50
2019-01-27T23:32:27.931Z,53.40
2019-01-27T23:34:55.420Z,53.50
2019-01-27T23:37:22.688Z,53.40
2019-01-27T23:39:50.009Z,53.20
2019-01-27T23:42:17.510Z,53.50
2019-01-27T23:44:45.828Z,53.10
2019-01-27T23:47:13.211Z,53.00
2019-01-27T23:49:40.617Z,53.00
2019-01-27T23:52:07.978Z,53.10
2019-01-27T23:54:35.872Z,53.20
2019-01-27T23:57:03.258Z,53.50
2019-01-27T23:59:30.604Z,54.20
